sensor_id;sensor_type;location;lat;lon;timestamp;pressure;altitude;pressure_sealevel;temperature;humidity
60355;BME280;46198;51.464;-0.066;2023-04-28T00:02:22;100743.53;;;11.23;100.00
60355;BME280;46198;51.464;-0.066;2023-04-28T00:04:51;100733.06;;;11.26;100.00
60355;BME280;46198;51.464;-0.066;2023-04-28T00:07:20;100730.53;;;11.25;100.00
60355;BME280;46198;51.464;-0.066;2023-04-28T00:09:48;100739.31;;;11.27;100.00
60355;BME280;46198;51.464;-0.066;2023-04-28T00:12:16;100727.38;;;11.28;100.00
60355;BME280;46198;51.464;-0.066;2023-04-28T00:14:44;100730.09;;;11.28;100.00
60355;BME280;46198;51.464;-0.066;2023-04-28T00:17:12;100725.25;;;11.30;100.00
60355;BME280;46198;51.464;-0.066;2023-04-28T00:19:41;100719.81;;;11.30;100.00
60355;BME280;46198;51.464;-0.066;2023-04-28T00:22:10;100715.81;;;11.32;100.00
60355;BME280;46198;51.464;-0.066;2023-04-28T00:24:38;100709.56;;;11.32;100.00
60355;BME280;46198;51.464;-0.066;2023-04-28T00:30:28;100698.22;;;11.35;100.00
60355;BME280;46198;51.464;-0.066;2023-04-28T00:32:56;100689.25;;;11.35;100.00
60355;BME280;46198;51.464;-0.066;2023-04-28T00:35:26;100694.44;;;11.36;100.00
60355;BME280;46198;51.464;-0.066;2023-04-28T00:37:54;100691.25;;;11.39;100.00
60355;BME280;46198;51.464;-0.066;2023-04-28T00:40:22;100689.38;;;11.40;100.00
60355;BME280;46198;51.464;-0.066;2023-04-28T00:42:50;100690.22;;;11.40;100.00
60355;BME280;46198;51.464;-0.066;2023-04-28T00:45:18;100692.09;;;11.40;100.00
60355;BME280;46198;51.464;-0.066;2023-04-28T00:47:47;100692.69;;;11.42;100.00
60355;BME280;46198;51.464;-0.066;2023-04-28T00:50:15;100696.84;;;11.44;100.00
60355;BME280;46198;51.464;-0.066;2023-04-28T00:52:45;100684.69;;;11.47;100.00
60355;BME280;46198;51.464;-0.066;2023-04-28T00:55:14;100688.63;;;11.51;100.00
60355;BME280;46198;51.464;-0.066;2023-04-28T00:57:43;100683.03;;;11.46;100.00
60355;BME280;46198;51.464;-0.066;2023-04-28T01:00:14;100683.88;;;11.46;100.00
60355;BME280;46198;51.464;-0.066;2023-04-28T01:02:42;100688.84;;;11.49;100.00
60355;BME280;46198;51.464;-0.066;2023-04-28T01:05:11;100679.03;;;11.48;100.00
60355;BME280;46198;51.464;-0.066;2023-04-28T01:07:40;100682.56;;;11.49;100.00
60355;BME280;46198;51.464;-0.066;2023-04-28T01:10:10;100687.75;;;11.50;100.00
60355;BME280;46198;51.464;-0.066;2023-04-28T01:12:38;100681.28;;;11.51;100.00
60355;BME280;46198;51.464;-0.066;2023-04-28T01:15:11;100675.59;;;11.53;100.00
60355;BME280;46198;51.464;-0.066;2023-04-28T01:17:44;100682.94;;;11.52;100.00
60355;BME280;46198;51.464;-0.066;2023-04-28T01:20:12;100679.19;;;11.53;100.00
60355;BME280;46198;51.464;-0.066;2023-04-28T01:22:41;100680.00;;;11.54;100.00
60355;BME280;46198;51.464;-0.066;2023-04-28T01:25:11;100684.38;;;11.55;100.00
60355;BME280;46198;51.464;-0.066;2023-04-28T01:27:39;100671.59;;;11.56;100.00
60355;BME280;46198;51.464;-0.066;2023-04-28T01:30:08;100676.00;;;11.57;100.00
60355;BME280;46198;51.464;-0.066;2023-04-28T01:32:36;100677.84;;;11.56;100.00
60355;BME280;46198;51.464;-0.066;2023-04-28T01:35:05;100678.72;;;11.57;100.00
60355;BME280;46198;51.464;-0.066;2023-04-28T01:37:34;100681.19;;;11.58;100.00
60355;BME280;46198;51.464;-0.066;2023-04-28T01:40:03;100675.75;;;11.58;100.00
60355;BME280;46198;51.464;-0.066;2023-04-28T01:42:32;100671.13;;;11.59;100.00
60355;BME280;46198;51.464;-0.066;2023-04-28T01:45:01;100672.81;;;11.60;100.00
60355;BME280;46198;51.464;-0.066;2023-04-28T01:47:31;100674.47;;;11.61;100.00
60355;BME280;46198;51.464;-0.066;2023-04-28T01:49:59;100684.88;;;11.64;100.00
60355;BME280;46198;51.464;-0.066;2023-04-28T01:52:28;100670.22;;;11.65;100.00
60355;BME280;46198;51.464;-0.066;2023-04-28T01:54:56;100672.94;;;11.65;100.00
60355;BME280;46198;51.464;-0.066;2023-04-28T01:57:24;100678.97;;;11.67;100.00
60355;BME280;46198;51.464;-0.066;2023-04-28T01:59:57;100666.44;;;11.66;100.00
60355;BME280;46198;51.464;-0.066;2023-04-28T02:02:27;100672.47;;;11.68;100.00
60355;BME280;46198;51.464;-0.066;2023-04-28T02:04:56;100675.56;;;11.71;100.00
60355;BME280;46198;51.464;-0.066;2023-04-28T02:07:24;100662.91;;;11.77;100.00
60355;BME280;46198;51.464;-0.066;2023-04-28T02:09:52;100671.09;;;11.77;100.00
60355;BME280;46198;51.464;-0.066;2023-04-28T02:12:21;100665.66;;;11.77;100.00
60355;BME280;46198;51.464;-0.066;2023-04-28T02:14:49;100668.97;;;11.79;100.00
60355;BME280;46198;51.464;-0.066;2023-04-28T02:17:20;100667.31;;;11.78;100.00
60355;BME280;46198;51.464;-0.066;2023-04-28T02:19:53;100666.03;;;11.81;100.00
60355;BME280;46198;51.464;-0.066;2023-04-28T02:22:22;100669.09;;;11.84;100.00
60355;BME280;46198;51.464;-0.066;2023-04-28T02:24:50;100666.38;;;11.84;100.00
60355;BME280;46198;51.464;-0.066;2023-04-28T02:27:18;100662.59;;;11.85;100.00
60355;BME280;46198;51.464;-0.066;2023-04-28T02:29:47;100669.84;;;11.91;100.00
60355;BME280;46198;51.464;-0.066;2023-04-28T02:32:16;100671.53;;;11.92;100.00
60355;BME280;46198;51.464;-0.066;2023-04-28T02:34:45;100670.50;;;12.05;100.00
60355;BME280;46198;51.464;-0.066;2023-04-28T02:37:13;100670.50;;;12.05;100.00
60355;BME280;46198;51.464;-0.066;2023-04-28T02:39:41;100671.06;;;12.07;100.00
60355;BME280;46198;51.464;-0.066;2023-04-28T02:42:09;100663.28;;;12.11;100.00
60355;BME280;46198;51.464;-0.066;2023-04-28T02:44:37;100670.84;;;12.09;100.00
60355;BME280;46198;51.464;-0.066;2023-04-28T02:47:05;100666.59;;;12.13;100.00
60355;BME280;46198;51.464;-0.066;2023-04-28T02:49:33;100671.34;;;12.17;100.00
60355;BME280;46198;51.464;-0.066;2023-04-28T02:52:03;100659.03;;;12.15;100.00
60355;BME280;46198;51.464;-0.066;2023-04-28T02:54:31;100675.94;;;12.17;100.00
60355;BME280;46198;51.464;-0.066;2023-04-28T02:57:01;100675.47;;;12.20;100.00
60355;BME280;46198;51.464;-0.066;2023-04-28T02:59:30;100668.13;;;12.20;100.00
60355;BME280;46198;51.464;-0.066;2023-04-28T03:01:58;100668.97;;;12.21;100.00
60355;BME280;46198;51.464;-0.066;2023-04-28T03:04:26;100673.97;;;12.24;100.00
60355;BME280;46198;51.464;-0.066;2023-04-28T03:06:54;100676.69;;;12.24;100.00
60355;BME280;46198;51.464;-0.066;2023-04-28T03:09:23;100669.56;;;12.23;100.00
60355;BME280;46198;51.464;-0.066;2023-04-28T03:15:33;100666.03;;;12.23;100.00
60355;BME280;46198;51.464;-0.066;2023-04-28T03:18:01;100670.63;;;12.22;100.00
60355;BME280;46198;51.464;-0.066;2023-04-28T03:20:29;100682.13;;;12.24;100.00
60355;BME280;46198;51.464;-0.066;2023-04-28T03:22:57;100676.09;;;12.22;100.00
60355;BME280;46198;51.464;-0.066;2023-04-28T03:25:27;100672.88;;;12.25;100.00
60355;BME280;46198;51.464;-0.066;2023-04-28T03:27:55;100682.22;;;12.29;100.00
60355;BME280;46198;51.464;-0.066;2023-04-28T03:30:24;100675.88;;;12.35;100.00
60355;BME280;46198;51.464;-0.066;2023-04-28T03:32:52;100676.78;;;12.29;100.00
60355;BME280;46198;51.464;-0.066;2023-04-28T03:35:20;100682.22;;;12.29;100.00
60355;BME280;46198;51.464;-0.066;2023-04-28T03:37:48;100678.59;;;12.35;100.00
60355;BME280;46198;51.464;-0.066;2023-04-28T03:40:16;100685.56;;;12.31;100.00
60355;BME280;46198;51.464;-0.066;2023-04-28T03:43:21;100684.13;;;12.29;100.00
60355;BME280;46198;51.464;-0.066;2023-04-28T03:46:05;100690.41;;;12.29;100.00
60355;BME280;46198;51.464;-0.066;2023-04-28T03:48:33;100688.16;;;12.26;100.00
60355;BME280;46198;51.464;-0.066;2023-04-28T03:51:01;100691.59;;;12.22;100.00
60355;BME280;46198;51.464;-0.066;2023-04-28T03:53:55;100685.28;;;12.21;100.00
60355;BME280;46198;51.464;-0.066;2023-04-28T03:56:23;100678.56;;;12.24;100.00
60355;BME280;46198;51.464;-0.066;2023-04-28T03:59:19;100683.53;;;12.27;100.00
60355;BME280;46198;51.464;-0.066;2023-04-28T04:01:48;100688.16;;;12.26;100.00
60355;BME280;46198;51.464;-0.066;2023-04-28T04:04:16;100676.91;;;12.23;100.00
60355;BME280;46198;51.464;-0.066;2023-04-28T04:06:45;100668.53;;;12.24;100.00
60355;BME280;46198;51.464;-0.066;2023-04-28T04:09:13;100677.03;;;12.16;100.00
60355;BME280;46198;51.464;-0.066;2023-04-28T04:11:42;100680.44;;;12.11;100.00
60355;BME280;46198;51.464;-0.066;2023-04-28T04:14:10;100681.03;;;12.13;100.00
60355;BME280;46198;51.464;-0.066;2023-04-28T04:16:39;100682.47;;;12.16;100.00
60355;BME280;46198;51.464;-0.066;2023-04-28T04:19:08;100691.06;;;12.13;100.00
60355;BME280;46198;51.464;-0.066;2023-04-28T04:21:40;100694.41;;;12.15;100.00
60355;BME280;46198;51.464;-0.066;2023-04-28T04:24:08;100683.38;;;12.10;100.00
60355;BME280;46198;51.464;-0.066;2023-04-28T04:26:36;100697.47;;;12.07;100.00
60355;BME280;46198;51.464;-0.066;2023-04-28T04:29:20;100699.72;;;12.10;100.00
60355;BME280;46198;51.464;-0.066;2023-04-28T04:31:49;100699.09;;;12.08;100.00
60355;BME280;46198;51.464;-0.066;2023-04-28T04:34:17;100693.31;;;12.04;100.00
60355;BME280;46198;51.464;-0.066;2023-04-28T04:36:45;100702.31;;;12.05;100.00
60355;BME280;46198;51.464;-0.066;2023-04-28T04:39:14;100707.06;;;12.09;100.00
60355;BME280;46198;51.464;-0.066;2023-04-28T04:41:41;100702.41;;;11.98;100.00
60355;BME280;46198;51.464;-0.066;2023-04-28T04:44:25;100707.75;;;12.05;100.00
60355;BME280;46198;51.464;-0.066;2023-04-28T04:46:56;100712.00;;;12.01;100.00
60355;BME280;46198;51.464;-0.066;2023-04-28T04:49:25;100715.78;;;12.00;100.00
60355;BME280;46198;51.464;-0.066;2023-04-28T04:51:53;100720.63;;;11.97;100.00
60355;BME280;46198;51.464;-0.066;2023-04-28T04:54:21;100721.94;;;11.95;100.00
60355;BME280;46198;51.464;-0.066;2023-04-28T04:56:50;100716.84;;;11.98;100.00
60355;BME280;46198;51.464;-0.066;2023-04-28T04:59:53;100716.63;;;12.00;100.00
60355;BME280;46198;51.464;-0.066;2023-04-28T05:02:23;100713.38;;;11.91;100.00
60355;BME280;46198;51.464;-0.066;2023-04-28T05:04:51;100716.50;;;11.95;100.00
60355;BME280;46198;51.464;-0.066;2023-04-28T05:07:30;100725.13;;;11.92;100.00
60355;BME280;46198;51.464;-0.066;2023-04-28T05:09:58;100723.44;;;11.91;100.00
60355;BME280;46198;51.464;-0.066;2023-04-28T05:12:31;100723.44;;;11.91;100.00
60355;BME280;46198;51.464;-0.066;2023-04-28T05:14:59;100721.53;;;11.91;100.00
60355;BME280;46198;51.464;-0.066;2023-04-28T05:17:28;100730.56;;;11.92;100.00
60355;BME280;46198;51.464;-0.066;2023-04-28T05:19:56;100725.94;;;11.92;100.00
60355;BME280;46198;51.464;-0.066;2023-04-28T05:22:24;100727.69;;;11.87;100.00
60355;BME280;46198;51.464;-0.066;2023-04-28T05:24:52;100734.19;;;11.86;100.00
60355;BME280;46198;51.464;-0.066;2023-04-28T05:27:20;100751.03;;;11.94;100.00
60355;BME280;46198;51.464;-0.066;2023-04-28T05:29:48;100745.22;;;11.91;100.00
60355;BME280;46198;51.464;-0.066;2023-04-28T05:32:16;100752.69;;;11.95;100.00
60355;BME280;46198;51.464;-0.066;2023-04-28T05:34:46;100746.16;;;11.96;100.00
60355;BME280;46198;51.464;-0.066;2023-04-28T05:37:14;100747.25;;;11.95;100.00
60355;BME280;46198;51.464;-0.066;2023-04-28T05:39:43;100749.13;;;11.95;100.00
60355;BME280;46198;51.464;-0.066;2023-04-28T05:42:12;100745.72;;;12.00;100.00
60355;BME280;46198;51.464;-0.066;2023-04-28T05:44:40;100757.66;;;11.98;100.00
60355;BME280;46198;51.464;-0.066;2023-04-28T05:47:09;100753.88;;;12.00;100.00
60355;BME280;46198;51.464;-0.066;2023-04-28T05:50:04;100756.38;;;12.01;100.00
60355;BME280;46198;51.464;-0.066;2023-04-28T05:52:33;100761.59;;;12.03;100.00
60355;BME280;46198;51.464;-0.066;2023-04-28T05:55:01;100758.56;;;12.11;100.00
60355;BME280;46198;51.464;-0.066;2023-04-28T05:57:29;100765.50;;;12.07;100.00
60355;BME280;46198;51.464;-0.066;2023-04-28T06:00:08;100755.69;;;12.06;100.00
60355;BME280;46198;51.464;-0.066;2023-04-28T06:02:39;100768.16;;;12.13;100.00
60355;BME280;46198;51.464;-0.066;2023-04-28T06:08:28;100772.59;;;12.08;100.00
60355;BME280;46198;51.464;-0.066;2023-04-28T06:10:56;100772.16;;;12.11;100.00
60355;BME280;46198;51.464;-0.066;2023-04-28T06:13:24;100778.91;;;12.20;100.00
60355;BME280;46198;51.464;-0.066;2023-04-28T06:15:52;100777.75;;;12.28;100.00
60355;BME280;46198;51.464;-0.066;2023-04-28T06:18:20;100773.97;;;12.29;100.00
60355;BME280;46198;51.464;-0.066;2023-04-28T06:20:49;100787.38;;;12.30;100.00
60355;BME280;46198;51.464;-0.066;2023-04-28T06:23:19;100783.00;;;12.41;100.00
60355;BME280;46198;51.464;-0.066;2023-04-28T06:25:51;100790.03;;;12.49;100.00
60355;BME280;46198;51.464;-0.066;2023-04-28T06:28:19;100790.56;;;12.39;100.00
60355;BME280;46198;51.464;-0.066;2023-04-28T06:30:47;100792.69;;;12.37;100.00
60355;BME280;46198;51.464;-0.066;2023-04-28T06:33:15;100794.25;;;12.45;100.00
60355;BME280;46198;51.464;-0.066;2023-04-28T06:35:44;100797.25;;;12.55;100.00
60355;BME280;46198;51.464;-0.066;2023-04-28T06:38:14;100797.38;;;12.60;100.00
60355;BME280;46198;51.464;-0.066;2023-04-28T06:40:42;100793.84;;;12.59;100.00
60355;BME280;46198;51.464;-0.066;2023-04-28T06:43:12;100801.88;;;12.66;100.00
60355;BME280;46198;51.464;-0.066;2023-04-28T06:45:49;100803.53;;;12.67;100.00
60355;BME280;46198;51.464;-0.066;2023-04-28T06:48:18;100803.66;;;12.60;100.00
60355;BME280;46198;51.464;-0.066;2023-04-28T06:50:46;100813.38;;;12.68;100.00
60355;BME280;46198;51.464;-0.066;2023-04-28T06:53:14;100808.97;;;12.67;100.00
60355;BME280;46198;51.464;-0.066;2023-04-28T06:55:42;100815.84;;;12.70;100.00
60355;BME280;46198;51.464;-0.066;2023-04-28T06:58:10;100814.53;;;12.60;100.00
60355;BME280;46198;51.464;-0.066;2023-04-28T07:00:39;100820.63;;;12.74;100.00
60355;BME280;46198;51.464;-0.066;2023-04-28T07:03:07;100826.50;;;12.59;100.00
60355;BME280;46198;51.464;-0.066;2023-04-28T07:05:35;100820.34;;;12.64;100.00
60355;BME280;46198;51.464;-0.066;2023-04-28T07:08:04;100830.09;;;12.72;100.00
60355;BME280;46198;51.464;-0.066;2023-04-28T07:10:32;100832.44;;;12.68;100.00
60355;BME280;46198;51.464;-0.066;2023-04-28T07:13:00;100831.25;;;12.64;100.00
60355;BME280;46198;51.464;-0.066;2023-04-28T07:15:28;100837.44;;;12.71;100.00
60355;BME280;46198;51.464;-0.066;2023-04-28T07:17:58;100835.75;;;12.70;100.00
60355;BME280;46198;51.464;-0.066;2023-04-28T07:20:26;100839.06;;;12.72;100.00
60355;BME280;46198;51.464;-0.066;2023-04-28T07:22:56;100841.59;;;12.74;100.00
60355;BME280;46198;51.464;-0.066;2023-04-28T07:25:24;100844.19;;;12.80;100.00
60355;BME280;46198;51.464;-0.066;2023-04-28T07:27:52;100843.03;;;12.88;100.00
60355;BME280;46198;51.464;-0.066;2023-04-28T07:30:20;100843.28;;;12.86;100.00
60355;BME280;46198;51.464;-0.066;2023-04-28T07:33:21;100845.53;;;12.90;100.00
60355;BME280;46198;51.464;-0.066;2023-04-28T07:35:49;100850.84;;;12.96;100.00
60355;BME280;46198;51.464;-0.066;2023-04-28T07:38:19;100845.19;;;12.98;100.00
60355;BME280;46198;51.464;-0.066;2023-04-28T07:40:47;100849.78;;;12.97;100.00
60355;BME280;46198;51.464;-0.066;2023-04-28T07:43:15;100858.59;;;13.11;100.00
60355;BME280;46198;51.464;-0.066;2023-04-28T07:45:43;100862.09;;;13.00;100.00
60355;BME280;46198;51.464;-0.066;2023-04-28T07:48:15;100858.94;;;13.03;100.00
60355;BME280;46198;51.464;-0.066;2023-04-28T07:50:44;100864.72;;;13.06;100.00
60355;BME280;46198;51.464;-0.066;2023-04-28T07:53:12;100866.75;;;13.11;100.00
60355;BME280;46198;51.464;-0.066;2023-04-28T07:55:40;100866.16;;;13.09;100.00
60355;BME280;46198;51.464;-0.066;2023-04-28T07:58:10;100873.25;;;13.10;100.00
60355;BME280;46198;51.464;-0.066;2023-04-28T08:00:38;100882.25;;;13.11;100.00
60355;BME280;46198;51.464;-0.066;2023-04-28T08:03:07;100876.25;;;13.08;100.00
60355;BME280;46198;51.464;-0.066;2023-04-28T08:05:35;100879.31;;;13.12;100.00
60355;BME280;46198;51.464;-0.066;2023-04-28T08:08:05;100879.44;;;13.17;100.00
60355;BME280;46198;51.464;-0.066;2023-04-28T08:10:33;100886.91;;;13.22;100.00
60355;BME280;46198;51.464;-0.066;2023-04-28T08:13:01;100887.06;;;13.39;100.00
60355;BME280;46198;51.464;-0.066;2023-04-28T08:15:29;100878.78;;;13.57;100.00
60355;BME280;46198;51.464;-0.066;2023-04-28T08:17:57;100881.59;;;13.62;100.00
60355;BME280;46198;51.464;-0.066;2023-04-28T08:20:25;100891.19;;;13.77;100.00
60355;BME280;46198;51.464;-0.066;2023-04-28T08:22:53;100882.41;;;13.74;100.00
60355;BME280;46198;51.464;-0.066;2023-04-28T08:25:23;100891.31;;;13.82;100.00
60355;BME280;46198;51.464;-0.066;2023-04-28T08:27:51;100886.91;;;13.81;100.00
60355;BME280;46198;51.464;-0.066;2023-04-28T08:30:23;100879.34;;;13.71;100.00
60355;BME280;46198;51.464;-0.066;2023-04-28T08:32:51;100888.94;;;13.73;100.00
60355;BME280;46198;51.464;-0.066;2023-04-28T08:35:19;100887.03;;;13.86;100.00
60355;BME280;46198;51.464;-0.066;2023-04-28T08:37:47;100884.19;;;13.81;100.00
60355;BME280;46198;51.464;-0.066;2023-04-28T08:40:15;100897.38;;;13.72;100.00
60355;BME280;46198;51.464;-0.066;2023-04-28T08:42:46;100891.56;;;13.68;100.00
60355;BME280;46198;51.464;-0.066;2023-04-28T08:45:14;100890.25;;;13.71;100.00
60355;BME280;46198;51.464;-0.066;2023-04-28T08:47:42;100889.28;;;13.77;100.00
60355;BME280;46198;51.464;-0.066;2023-04-28T08:50:13;100890.81;;;13.85;100.00
60355;BME280;46198;51.464;-0.066;2023-04-28T08:52:41;100898.56;;;13.76;100.00
60355;BME280;46198;51.464;-0.066;2023-04-28T08:55:11;100896.06;;;13.74;100.00
60355;BME280;46198;51.464;-0.066;2023-04-28T08:57:42;100900.91;;;13.84;100.00
60355;BME280;46198;51.464;-0.066;2023-04-28T09:00:13;100903.28;;;13.92;100.00
60355;BME280;46198;51.464;-0.066;2023-04-28T09:02:41;100904.06;;;14.05;100.00
60355;BME280;46198;51.464;-0.066;2023-04-28T09:05:10;100905.00;;;14.10;100.00
60355;BME280;46198;51.464;-0.066;2023-04-28T09:07:40;100904.72;;;14.24;100.00
60355;BME280;46198;51.464;-0.066;2023-04-28T09:10:19;100904.72;;;14.24;100.00
60355;BME280;46198;51.464;-0.066;2023-04-28T09:12:50;100896.38;;;14.30;100.00
60355;BME280;46198;51.464;-0.066;2023-04-28T09:15:30;100903.13;;;14.39;100.00
60355;BME280;46198;51.464;-0.066;2023-04-28T09:18:00;100898.09;;;14.48;100.00
60355;BME280;46198;51.464;-0.066;2023-04-28T09:20:30;100906.78;;;14.45;100.00
60355;BME280;46198;51.464;-0.066;2023-04-28T09:25:11;100911.38;;;14.28;100.00
60355;BME280;46198;51.464;-0.066;2023-04-28T09:27:39;100919.66;;;14.33;100.00
60355;BME280;46198;51.464;-0.066;2023-04-28T09:30:08;100925.00;;;14.39;100.00
60355;BME280;46198;51.464;-0.066;2023-04-28T09:32:36;100920.94;;;14.42;100.00
60355;BME280;46198;51.464;-0.066;2023-04-28T09:35:05;100917.28;;;14.36;100.00
60355;BME280;46198;51.464;-0.066;2023-04-28T09:37:33;100926.03;;;14.38;100.00
60355;BME280;46198;51.464;-0.066;2023-04-28T09:40:05;100925.56;;;14.53;100.00
60355;BME280;46198;51.464;-0.066;2023-04-28T09:42:36;100927.00;;;14.44;100.00
60355;BME280;46198;51.464;-0.066;2023-04-28T09:45:06;100922.84;;;14.41;100.00
60355;BME280;46198;51.464;-0.066;2023-04-28T09:47:36;100927.81;;;14.45;100.00
60355;BME280;46198;51.464;-0.066;2023-04-28T09:50:06;100937.66;;;14.46;100.00
60355;BME280;46198;51.464;-0.066;2023-04-28T09:52:37;100939.09;;;14.48;100.00
60355;BME280;46198;51.464;-0.066;2023-04-28T09:55:06;100941.88;;;14.36;100.00
60355;BME280;46198;51.464;-0.066;2023-04-28T09:57:38;100948.50;;;14.40;100.00
60355;BME280;46198;51.464;-0.066;2023-04-28T10:00:06;100945.22;;;14.27;100.00
60355;BME280;46198;51.464;-0.066;2023-04-28T10:02:36;100951.59;;;14.44;100.00
60355;BME280;46198;51.464;-0.066;2023-04-28T10:05:08;100956.69;;;14.40;100.00
60355;BME280;46198;51.464;-0.066;2023-04-28T10:07:38;100940.31;;;14.52;100.00
60355;BME280;46198;51.464;-0.066;2023-04-28T10:10:06;100944.81;;;14.47;100.00
60355;BME280;46198;51.464;-0.066;2023-04-28T10:12:36;100945.84;;;14.57;100.00
60355;BME280;46198;51.464;-0.066;2023-04-28T10:15:06;100944.41;;;14.67;100.00
60355;BME280;46198;51.464;-0.066;2023-04-28T10:17:34;100948.16;;;14.77;100.00
60355;BME280;46198;51.464;-0.066;2023-04-28T10:20:05;100959.41;;;14.81;100.00
60355;BME280;46198;51.464;-0.066;2023-04-28T10:22:45;100951.28;;;14.69;100.00
60355;BME280;46198;51.464;-0.066;2023-04-28T10:25:25;100960.41;;;14.75;100.00
60355;BME280;46198;51.464;-0.066;2023-04-28T10:27:55;100961.72;;;14.72;100.00
60355;BME280;46198;51.464;-0.066;2023-04-28T10:30:24;100965.06;;;14.62;100.00
60355;BME280;46198;51.464;-0.066;2023-04-28T10:33:23;100971.06;;;14.76;100.00
60355;BME280;46198;51.464;-0.066;2023-04-28T10:35:52;100981.69;;;14.73;100.00
60355;BME280;46198;51.464;-0.066;2023-04-28T10:38:21;100985.72;;;14.70;100.00
60355;BME280;46198;51.464;-0.066;2023-04-28T10:40:50;100990.53;;;14.63;100.00
60355;BME280;46198;51.464;-0.066;2023-04-28T10:43:38;101000.97;;;14.54;100.00
60355;BME280;46198;51.464;-0.066;2023-04-28T10:46:08;100998.09;;;14.49;100.00
60355;BME280;46198;51.464;-0.066;2023-04-28T10:48:54;101011.47;;;14.34;100.00
60355;BME280;46198;51.464;-0.066;2023-04-28T10:51:32;101013.22;;;14.40;100.00
60355;BME280;46198;51.464;-0.066;2023-04-28T10:54:13;101017.19;;;14.21;100.00
60355;BME280;46198;51.464;-0.066;2023-04-28T10:59:45;101015.59;;;14.48;100.00
60355;BME280;46198;51.464;-0.066;2023-04-28T11:02:35;101011.91;;;14.54;100.00
60355;BME280;46198;51.464;-0.066;2023-04-28T11:05:12;101021.03;;;14.72;100.00
60355;BME280;46198;51.464;-0.066;2023-04-28T11:11:12;101030.91;;;14.61;100.00
60355;BME280;46198;51.464;-0.066;2023-04-28T11:13:40;101018.31;;;14.60;100.00
60355;BME280;46198;51.464;-0.066;2023-04-28T11:16:13;101013.81;;;14.54;100.00
60355;BME280;46198;51.464;-0.066;2023-04-28T11:18:49;101033.28;;;14.69;100.00
60355;BME280;46198;51.464;-0.066;2023-04-28T11:21:22;101029.50;;;14.87;100.00
60355;BME280;46198;51.464;-0.066;2023-04-28T11:23:51;101024.25;;;14.97;100.00
60355;BME280;46198;51.464;-0.066;2023-04-28T11:26:19;101019.47;;;15.04;100.00
60355;BME280;46198;51.464;-0.066;2023-04-28T11:28:51;101015.34;;;15.19;100.00
60355;BME280;46198;51.464;-0.066;2023-04-28T11:31:22;101023.16;;;15.27;100.00
60355;BME280;46198;51.464;-0.066;2023-04-28T11:33:51;101019.00;;;15.41;100.00
60355;BME280;46198;51.464;-0.066;2023-04-28T11:36:27;101014.94;;;15.44;100.00
60355;BME280;46198;51.464;-0.066;2023-04-28T11:38:55;101018.19;;;15.41;100.00
60355;BME280;46198;51.464;-0.066;2023-04-28T11:41:24;101029.31;;;15.34;100.00
60355;BME280;46198;51.464;-0.066;2023-04-28T11:43:52;101034.59;;;15.24;100.00
60355;BME280;46198;51.464;-0.066;2023-04-28T11:46:23;101038.41;;;14.94;100.00
60355;BME280;46198;51.464;-0.066;2023-04-28T11:49:01;101036.94;;;15.03;100.00
60355;BME280;46198;51.464;-0.066;2023-04-28T11:51:35;101046.91;;;15.10;100.00
60355;BME280;46198;51.464;-0.066;2023-04-28T11:54:04;101044.97;;;14.93;100.00
60355;BME280;46198;51.464;-0.066;2023-04-28T11:56:37;101043.94;;;14.82;100.00
60355;BME280;46198;51.464;-0.066;2023-04-28T11:59:07;101049.34;;;14.94;100.00
60355;BME280;46198;51.464;-0.066;2023-04-28T12:01:45;101058.25;;;15.01;100.00
60355;BME280;46198;51.464;-0.066;2023-04-28T12:04:15;101055.53;;;15.18;100.00
60355;BME280;46198;51.464;-0.066;2023-04-28T12:07:04;101053.84;;;15.29;100.00
60355;BME280;46198;51.464;-0.066;2023-04-28T12:09:33;101058.41;;;15.40;100.00
60355;BME280;46198;51.464;-0.066;2023-04-28T12:12:04;101055.69;;;15.57;100.00
60355;BME280;46198;51.464;-0.066;2023-04-28T12:14:52;101060.88;;;15.70;100.00
60355;BME280;46198;51.464;-0.066;2023-04-28T12:17:25;101062.78;;;15.70;100.00
60355;BME280;46198;51.464;-0.066;2023-04-28T12:19:53;101053.34;;;15.66;100.00
60355;BME280;46198;51.464;-0.066;2023-04-28T12:22:22;101065.16;;;15.66;100.00
60355;BME280;46198;51.464;-0.066;2023-04-28T12:25:04;101063.38;;;15.72;100.00
60355;BME280;46198;51.464;-0.066;2023-04-28T12:27:34;101062.69;;;15.82;100.00
60355;BME280;46198;51.464;-0.066;2023-04-28T12:30:25;101063.94;;;16.08;100.00
60355;BME280;46198;51.464;-0.066;2023-04-28T12:32:55;101070.00;;;16.10;100.00
60355;BME280;46198;51.464;-0.066;2023-04-28T12:35:25;101067.91;;;16.00;100.00
60355;BME280;46198;51.464;-0.066;2023-04-28T12:37:54;101075.81;;;15.97;100.00
60355;BME280;46198;51.464;-0.066;2023-04-28T12:40:22;101072.91;;;15.86;100.00
60355;BME280;46198;51.464;-0.066;2023-04-28T12:42:52;101079.53;;;15.90;100.00
60355;BME280;46198;51.464;-0.066;2023-04-28T12:45:20;101078.34;;;16.20;100.00
60355;BME280;46198;51.464;-0.066;2023-04-28T12:47:48;101079.41;;;16.58;100.00
60355;BME280;46198;51.464;-0.066;2023-04-28T12:50:18;101092.22;;;16.52;100.00
60355;BME280;46198;51.464;-0.066;2023-04-28T12:52:46;101090.72;;;16.39;100.00
60355;BME280;46198;51.464;-0.066;2023-04-28T12:55:14;101093.38;;;16.34;100.00
60355;BME280;46198;51.464;-0.066;2023-04-28T12:57:43;101082.03;;;16.48;100.00
60355;BME280;46198;51.464;-0.066;2023-04-28T13:00:12;101088.28;;;16.43;100.00
60355;BME280;46198;51.464;-0.066;2023-04-28T13:02:42;101098.50;;;16.31;100.00
60355;BME280;46198;51.464;-0.066;2023-04-28T13:05:11;101107.50;;;16.26;100.00
60355;BME280;46198;51.464;-0.066;2023-04-28T13:07:41;101101.31;;;16.36;100.00